createdAt,value
2018-09-05T00:01:06.238Z,12.60
2018-09-05T00:03:34.851Z,12.83
2018-09-05T00:06:03.571Z,12.77
2018-09-05T00:08:32.283Z,12.93
2018-09-05T00:11:01.036Z,12.30
2018-09-05T00:13:29.736Z,13.07
2018-09-05T00:15:58.343Z,13.83
2018-09-05T00:18:26.966Z,14.00
2018-09-05T00:20:55.568Z,12.43
2018-09-05T00:23:24.258Z,12.17
2018-09-05T00:25:53.906Z,13.90
2018-09-05T00:28:22.661Z,14.60
2018-09-05T00:30:51.391Z,13.93
2018-09-05T00:33:20.594Z,17.60
2018-09-05T00:35:49.395Z,16.70
2018-09-05T00:38:18.195Z,14.77
2018-09-05T00:40:46.930Z,13.90
2018-09-05T00:43:15.615Z,12.73
2018-09-05T00:45:44.243Z,12.13
2018-09-05T00:48:12.863Z,9.97
2018-09-05T00:50:42.963Z,10.07
2018-09-05T00:53:11.603Z,10.33
2018-09-05T00:55:40.236Z,11.50
2018-09-05T00:58:08.863Z,11.10
2018-09-05T01:00:37.575Z,10.63
2018-09-05T01:03:06.216Z,11.00
2018-09-05T01:05:34.806Z,11.87
2018-09-05T01:08:03.438Z,12.87
2018-09-05T01:10:32.032Z,14.07
2018-09-05T01:13:00.660Z,14.63
2018-09-05T01:15:29.344Z,13.93
2018-09-05T01:17:58.023Z,13.63
2018-09-05T01:20:26.758Z,13.77
2018-09-05T01:22:55.503Z,13.63
2018-09-05T01:25:25.172Z,12.27
2018-09-05T01:27:53.843Z,19.10
2018-09-05T01:30:26.071Z,13.63
2018-09-05T01:32:55.271Z,13.67
2018-09-05T01:35:23.879Z,16.67
2018-09-05T01:37:52.618Z,22.67
2018-09-05T01:40:21.308Z,15.27
2018-09-05T01:42:49.875Z,10.60
2018-09-05T01:45:18.466Z,12.20
2018-09-05T01:47:47.076Z,11.20
2018-09-05T01:50:15.754Z,11.33
2018-09-05T01:52:44.338Z,11.70
2018-09-05T01:55:12.936Z,11.30
2018-09-05T01:57:41.546Z,11.70
2018-09-05T02:00:14.896Z,10.43
2018-09-05T02:02:43.639Z,10.53
2018-09-05T02:05:12.323Z,11.83
2018-09-05T02:07:41.038Z,10.20
2018-09-05T02:10:09.700Z,11.17
2018-09-05T02:12:38.363Z,10.77
2018-09-05T02:15:07.044Z,10.87
2018-09-05T02:17:35.631Z,10.20
2018-09-05T02:20:04.331Z,11.47
2018-09-05T02:22:32.956Z,15.27
2018-09-05T02:25:01.593Z,20.23
2018-09-05T02:27:30.303Z,13.53
2018-09-05T02:29:58.971Z,11.33
2018-09-05T02:32:27.653Z,13.33
2018-09-05T02:34:56.281Z,13.37
2018-09-05T02:37:24.875Z,14.93
2018-09-05T02:39:53.538Z,15.43
2018-09-05T02:42:22.243Z,14.90
2018-09-05T02:44:51.043Z,11.03
2018-09-05T02:47:19.743Z,16.60
2018-09-05T02:49:48.430Z,20.80
2018-09-05T02:52:17.138Z,16.60
2018-09-05T02:54:45.927Z,11.40
2018-09-05T02:57:14.635Z,8.50
2018-09-05T02:59:43.368Z,9.50
2018-09-05T03:02:12.150Z,8.60
2018-09-05T03:04:40.878Z,8.73
2018-09-05T03:07:09.678Z,10.10
2018-09-05T03:09:38.397Z,10.03
2018-09-05T03:12:07.096Z,9.60
2018-09-05T03:14:35.703Z,11.20
2018-09-05T03:17:04.571Z,9.33
2018-09-05T03:19:33.228Z,9.70
2018-09-05T03:22:01.810Z,9.17
2018-09-05T03:24:30.467Z,10.27
2018-09-05T03:26:59.108Z,10.47
2018-09-05T03:29:27.710Z,10.50
2018-09-05T03:31:56.375Z,9.30
2018-09-05T03:34:25.089Z,9.87
2018-09-05T03:36:53.790Z,9.87
2018-09-05T03:39:22.499Z,10.17
2018-09-05T03:41:51.198Z,9.23
2018-09-05T03:44:19.923Z,10.17
2018-09-05T03:46:48.656Z,9.80
2018-09-05T03:49:17.431Z,10.10
2018-09-05T03:51:46.106Z,9.60
2018-09-05T03:54:14.725Z,10.43
2018-09-05T03:56:43.343Z,10.70
2018-09-05T03:59:11.929Z,10.10
2018-09-05T04:01:40.558Z,11.43
2018-09-05T04:04:09.282Z,11.87
2018-09-05T04:06:37.995Z,11.97
2018-09-05T04:09:08.278Z,12.80
2018-09-05T04:11:37.225Z,12.17
2018-09-05T04:14:05.891Z,10.90
2018-09-05T04:16:34.485Z,11.30
2018-09-05T04:19:03.081Z,11.20
2018-09-05T04:21:31.645Z,13.10
2018-09-05T04:24:00.291Z,15.80
2018-09-05T04:26:29.004Z,13.43
2018-09-05T04:28:57.692Z,12.40
2018-09-05T04:31:26.384Z,19.27
2018-09-05T04:33:54.988Z,16.90
2018-09-05T04:36:23.578Z,17.40
2018-09-05T04:38:52.158Z,12.60
2018-09-05T04:41:20.735Z,14.87
2018-09-05T04:43:49.404Z,13.00
2018-09-05T04:46:18.156Z,14.63
2018-09-05T04:48:46.851Z,15.07
2018-09-05T04:51:15.654Z,13.83
2018-09-05T04:53:44.253Z,13.50
2018-09-05T04:56:12.914Z,19.43
2018-09-05T04:58:41.496Z,22.27
2018-09-05T05:01:10.111Z,15.00
2018-09-05T05:03:38.691Z,19.53
2018-09-05T05:06:08.072Z,14.27
2018-09-05T05:08:36.710Z,18.13
2018-09-05T05:11:05.353Z,12.90
2018-09-05T05:13:33.998Z,12.97
2018-09-05T05:16:02.678Z,12.90
2018-09-05T05:18:31.363Z,11.60
2018-09-05T05:21:00.074Z,11.80
2018-09-05T05:23:28.775Z,13.97
2018-09-05T05:25:57.528Z,19.77
2018-09-05T05:28:26.313Z,11.00
2018-09-05T05:30:55.145Z,12.23
2018-09-05T05:33:23.914Z,22.17
2018-09-05T05:35:52.648Z,15.10
2018-09-05T05:38:21.290Z,10.47
2018-09-05T05:40:49.983Z,11.30
2018-09-05T05:43:18.651Z,9.70
2018-09-05T05:45:47.454Z,12.70
2018-09-05T05:48:16.203Z,9.17
2018-09-05T05:50:44.939Z,8.77
2018-09-05T05:53:13.664Z,9.87
2018-09-05T05:55:42.341Z,7.90
2018-09-05T05:58:11.056Z,10.37
2018-09-05T06:00:39.848Z,6.80
2018-09-05T06:03:08.602Z,8.17
2018-09-05T06:05:37.347Z,8.40
2018-09-05T06:08:06.152Z,9.50
2018-09-05T06:10:35.617Z,8.17
2018-09-05T06:13:04.922Z,6.67
2018-09-05T06:15:34.089Z,7.57
2018-09-05T06:18:02.795Z,8.67
2018-09-05T06:20:31.372Z,7.33
2018-09-05T06:23:00.100Z,8.67
2018-09-05T06:25:28.767Z,10.37
2018-09-05T06:27:57.896Z,7.33
2018-09-05T06:30:26.886Z,6.70
2018-09-05T06:32:55.720Z,6.60
2018-09-05T06:35:24.467Z,7.20
2018-09-05T06:37:53.195Z,6.40
2018-09-05T06:40:22.017Z,5.83
2018-09-05T06:42:50.723Z,6.00
2018-09-05T06:45:19.467Z,7.00
2018-09-05T06:47:48.082Z,7.13
2018-09-05T06:50:16.724Z,6.33
2018-09-05T06:52:45.380Z,6.70
2018-09-05T06:55:13.979Z,6.43
2018-09-05T06:57:42.654Z,5.90
2018-09-05T07:00:12.284Z,6.10
2018-09-05T07:02:43.567Z,6.27
2018-09-05T07:05:12.279Z,6.33
2018-09-05T07:07:40.974Z,6.37
2018-09-05T07:10:09.778Z,6.85
2018-09-05T07:12:38.506Z,7.12
2018-09-05T07:15:07.439Z,7.07
2018-09-05T07:17:36.336Z,7.50
2018-09-05T07:20:05.174Z,7.20
2018-09-05T07:22:34.034Z,6.97
2018-09-05T07:25:02.804Z,6.00
2018-09-05T07:27:31.596Z,6.35
2018-09-05T07:30:00.544Z,6.47
2018-09-05T07:32:29.291Z,6.20
2018-09-05T07:34:57.942Z,6.30
2018-09-05T07:37:26.650Z,6.42
2018-09-05T07:39:55.355Z,5.58
2018-09-05T07:42:24.548Z,5.92
2018-09-05T07:44:53.314Z,5.55
2018-09-05T07:47:22.213Z,5.35
2018-09-05T07:49:50.981Z,5.53
2018-09-05T07:52:19.768Z,5.37
2018-09-05T07:54:48.575Z,5.33
2018-09-05T07:57:17.362Z,5.05
2018-09-05T07:59:46.213Z,4.70
2018-09-05T08:02:14.911Z,4.80
2018-09-05T08:04:43.705Z,4.85
2018-09-05T08:07:12.392Z,5.00
2018-09-05T08:09:41.151Z,4.83
2018-09-05T08:12:09.833Z,5.05
2018-09-05T08:14:38.490Z,4.67
2018-09-05T08:17:07.193Z,3.80
2018-09-05T08:19:35.868Z,3.67
2018-09-05T08:22:04.675Z,3.95
2018-09-05T08:24:33.429Z,3.55
2018-09-05T08:27:02.145Z,3.90
2018-09-05T08:29:30.871Z,4.37
2018-09-05T08:31:59.773Z,4.10
2018-09-05T08:34:28.546Z,4.20
2018-09-05T08:36:57.593Z,4.12
2018-09-05T08:39:26.201Z,4.20
2018-09-05T08:41:55.039Z,4.35
2018-09-05T08:44:23.981Z,4.25
2018-09-05T08:46:52.799Z,3.85
2018-09-05T08:49:21.751Z,4.10
2018-09-05T08:51:50.666Z,4.12
2018-09-05T08:54:19.440Z,5.25
2018-09-05T08:56:48.210Z,3.83
2018-09-05T08:59:16.988Z,6.35
2018-09-05T09:01:45.689Z,3.70
2018-09-05T09:04:14.478Z,3.80
2018-09-05T09:06:43.113Z,3.92
2018-09-05T09:09:12.186Z,3.80
2018-09-05T09:11:41.443Z,3.62
2018-09-05T09:14:10.553Z,3.30
2018-09-05T09:16:39.431Z,3.98
2018-09-05T09:19:08.217Z,3.52
2018-09-05T09:21:36.988Z,3.72
2018-09-05T09:24:06.362Z,3.60
2018-09-05T09:26:35.099Z,3.85
2018-09-05T09:29:04.204Z,3.80
2018-09-05T09:31:33.027Z,3.60
2018-09-05T09:34:01.854Z,3.75
2018-09-05T09:36:30.669Z,3.47
2018-09-05T09:38:59.461Z,3.33
2018-09-05T09:41:29.107Z,3.83
2018-09-05T09:43:57.839Z,3.47
2018-09-05T09:46:27.821Z,3.20
2018-09-05T09:48:56.587Z,3.17
2018-09-05T09:51:25.309Z,3.40
2018-09-05T09:54:07.417Z,3.40
2018-09-05T09:56:36.355Z,3.45
2018-09-05T09:59:05.282Z,3.37
2018-09-05T10:01:40.584Z,3.50
2018-09-05T10:04:14.885Z,2.90
2018-09-05T10:06:50.375Z,3.22
2018-09-05T10:09:24.717Z,3.40
2018-09-05T10:11:58.977Z,3.08
2018-09-05T10:14:32.296Z,3.20
2018-09-05T10:17:06.756Z,3.47
2018-09-05T10:19:35.587Z,3.47
2018-09-05T10:22:04.589Z,3.65
2018-09-05T10:24:33.401Z,3.45
2018-09-05T10:27:02.191Z,3.60
2018-09-05T10:29:30.877Z,3.83
2018-09-05T10:31:59.757Z,3.58
2018-09-05T10:34:28.554Z,3.10
2018-09-05T10:36:57.506Z,3.77
2018-09-05T10:39:26.444Z,3.45
2018-09-05T10:41:55.544Z,3.87
2018-09-05T10:44:24.460Z,3.67
2018-09-05T10:46:53.296Z,3.62
2018-09-05T10:49:22.240Z,3.98
2018-09-05T10:51:54.263Z,3.60
2018-09-05T10:54:23.963Z,3.80
2018-09-05T10:56:52.799Z,3.80
2018-09-05T10:59:21.759Z,3.98
2018-09-05T11:01:50.686Z,3.85
2018-09-05T11:04:19.687Z,4.10
2018-09-05T11:06:48.566Z,3.55
2018-09-05T11:09:17.606Z,4.25
2018-09-05T11:11:46.514Z,3.65
2018-09-05T11:14:15.362Z,4.00
2018-09-05T11:16:44.221Z,4.10
2018-09-05T11:19:13.149Z,3.90
2018-09-05T11:21:41.969Z,4.17
2018-09-05T11:24:10.948Z,3.60
2018-09-05T11:26:39.765Z,3.65
2018-09-05T11:29:09.190Z,4.20
2018-09-05T11:31:38.021Z,4.10
2018-09-05T11:34:06.994Z,4.08
2018-09-05T11:36:35.914Z,3.72
2018-09-05T11:39:08.660Z,4.05
2018-09-05T11:41:37.494Z,3.67
2018-09-05T11:44:06.696Z,4.12
2018-09-05T11:46:36.153Z,4.15
2018-09-05T11:49:07.276Z,3.90
2018-09-05T11:51:36.519Z,3.80
2018-09-05T11:54:05.884Z,3.65
2018-09-05T11:56:34.789Z,3.67
2018-09-05T11:59:03.836Z,4.28
2018-09-05T12:01:32.896Z,4.33
2018-09-05T12:04:01.896Z,3.83
2018-09-05T12:06:30.804Z,4.15
2018-09-05T12:08:59.969Z,4.45
2018-09-05T12:11:28.904Z,4.10
2018-09-05T12:13:57.812Z,3.77
2018-09-05T12:16:26.791Z,3.52
2018-09-05T12:18:55.979Z,3.90
2018-09-05T12:21:25.020Z,3.80
2018-09-05T12:23:53.914Z,3.75
2018-09-05T12:26:22.776Z,3.50
2018-09-05T12:28:51.696Z,4.05
2018-09-05T12:31:20.824Z,4.20
2018-09-05T12:33:49.896Z,3.90
2018-09-05T12:36:18.818Z,3.50
2018-09-05T12:38:48.217Z,3.72
2018-09-05T12:41:17.156Z,3.98
2018-09-05T12:43:46.228Z,3.75
2018-09-05T12:46:15.139Z,4.20
2018-09-05T12:48:44.411Z,3.50
2018-09-05T12:51:13.739Z,3.83
2018-09-05T12:53:42.822Z,4.33
2018-09-05T12:56:11.593Z,4.00
2018-09-05T12:58:41.091Z,3.85
2018-09-05T13:01:10.241Z,4.05
2018-09-05T13:03:39.244Z,3.90
2018-09-05T13:06:08.319Z,3.85
2018-09-05T13:08:38.288Z,3.70
2018-09-05T13:11:07.302Z,3.87
2018-09-05T13:13:36.421Z,3.72
2018-09-05T13:16:06.249Z,3.85
2018-09-05T13:18:35.241Z,3.65
2018-09-05T13:21:04.218Z,3.67
2018-09-05T13:23:33.154Z,3.72
2018-09-05T13:26:04.521Z,3.70
2018-09-05T13:28:33.501Z,3.58
2018-09-05T13:31:02.474Z,3.83
2018-09-05T13:33:32.504Z,3.47
2018-09-05T13:36:01.644Z,3.62
2018-09-05T13:38:31.527Z,3.72
2018-09-05T13:41:00.723Z,5.03
2018-09-05T13:43:29.674Z,3.77
2018-09-05T13:45:58.633Z,4.00
2018-09-05T13:48:27.601Z,3.55
2018-09-05T13:50:56.964Z,3.72
2018-09-05T13:53:25.867Z,3.72
2018-09-05T13:55:54.677Z,3.50
2018-09-05T13:58:23.609Z,3.77
2018-09-05T14:00:53.521Z,3.72
2018-09-05T14:03:22.412Z,3.80
2018-09-05T14:05:51.294Z,3.40
2018-09-05T14:08:20.187Z,3.60
2018-09-05T14:10:49.102Z,3.83
2018-09-05T14:13:18.038Z,3.83
2018-09-05T14:15:47.601Z,3.50
2018-09-05T14:18:16.431Z,3.77
2018-09-05T14:20:45.429Z,4.05
2018-09-05T14:23:14.499Z,3.75
2018-09-05T14:25:43.294Z,3.65
2018-09-05T14:28:12.252Z,3.90
2018-09-05T14:30:41.166Z,3.50
2018-09-05T14:33:10.177Z,4.12
2018-09-05T14:35:39.184Z,4.15
2018-09-05T14:38:08.074Z,3.87
2018-09-05T14:40:36.899Z,3.72
2018-09-05T14:43:05.769Z,3.87
2018-09-05T14:45:35.101Z,4.20
2018-09-05T14:48:03.983Z,4.03
2018-09-05T14:50:32.890Z,4.10
2018-09-05T14:53:01.781Z,3.83
2018-09-05T14:55:30.756Z,3.70
2018-09-05T14:57:59.666Z,3.60
2018-09-05T15:00:28.532Z,3.65
2018-09-05T15:02:58.463Z,3.95
2018-09-05T15:05:27.314Z,4.17
2018-09-05T15:07:56.082Z,3.55
2018-09-05T15:10:24.949Z,4.05
2018-09-05T15:12:53.741Z,4.05
2018-09-05T15:15:22.536Z,4.10
2018-09-05T15:17:51.298Z,3.80
2018-09-05T15:20:20.066Z,3.90
2018-09-05T15:22:48.871Z,4.37
2018-09-05T15:25:17.629Z,3.67
2018-09-05T15:27:46.428Z,3.90
2018-09-05T15:30:15.249Z,3.87
2018-09-05T15:32:43.987Z,4.33
2018-09-05T15:35:12.801Z,4.50
2018-09-05T15:37:41.661Z,4.30
2018-09-05T15:40:10.650Z,3.90
2018-09-05T15:42:39.669Z,4.35
2018-09-05T15:45:08.658Z,4.37
2018-09-05T15:47:37.707Z,5.35
2018-09-05T15:50:06.797Z,6.97
2018-09-05T15:52:35.614Z,5.92
2018-09-05T15:55:04.481Z,6.62
2018-09-05T15:57:33.408Z,11.30
2018-09-05T16:00:02.286Z,14.80
2018-09-05T16:02:31.156Z,7.25
2018-09-05T16:05:00.002Z,4.22
2018-09-05T16:07:28.946Z,4.80
2018-09-05T16:09:57.813Z,4.15
2018-09-05T16:12:26.649Z,4.55
2018-09-05T16:14:55.467Z,4.70
2018-09-05T16:17:24.352Z,5.53
2018-09-05T16:19:53.539Z,6.22
2018-09-05T16:22:22.363Z,5.58
2018-09-05T16:24:51.519Z,7.15
2018-09-05T16:27:20.426Z,4.90
2018-09-05T16:29:49.396Z,4.47
2018-09-05T16:32:18.306Z,4.33
2018-09-05T16:34:47.091Z,3.80
2018-09-05T16:37:15.922Z,4.00
2018-09-05T16:39:45.733Z,4.30
2018-09-05T16:42:14.635Z,4.25
2018-09-05T16:44:43.616Z,5.15
2018-09-05T16:47:12.541Z,4.42
2018-09-05T16:49:41.519Z,4.28
2018-09-05T16:52:10.569Z,4.97
2018-09-05T16:54:39.359Z,4.83
2018-09-05T16:57:09.865Z,4.60
2018-09-05T16:59:38.702Z,4.55
2018-09-05T17:02:07.741Z,4.58
2018-09-05T17:04:36.799Z,4.30
2018-09-05T17:07:05.621Z,4.20
2018-09-05T17:09:34.340Z,4.00
2018-09-05T17:12:03.204Z,4.65
2018-09-05T17:14:32.144Z,4.37
2018-09-05T17:17:01.108Z,4.10
2018-09-05T17:19:30.091Z,4.60
2018-09-05T17:21:59.034Z,4.55
2018-09-05T17:24:27.961Z,4.10
2018-09-05T17:26:56.935Z,4.17
2018-09-05T17:29:25.895Z,4.40
2018-09-05T17:31:54.934Z,4.20
2018-09-05T17:34:23.995Z,4.30
2018-09-05T17:36:53.196Z,4.40
2018-09-05T17:39:22.278Z,4.07
2018-09-05T17:41:51.899Z,4.15
2018-09-05T17:44:21.058Z,4.40
2018-09-05T17:46:50.164Z,4.65
2018-09-05T17:49:19.248Z,4.65
2018-09-05T17:51:48.305Z,4.20
2018-09-05T17:54:17.514Z,4.60
2018-09-05T17:56:46.736Z,4.07
2018-09-05T17:59:15.840Z,4.25
2018-09-05T18:01:45.141Z,4.67
2018-09-05T18:04:15.328Z,4.53
2018-09-05T18:06:44.532Z,6.00
2018-09-05T18:09:13.624Z,4.77
2018-09-05T18:11:43.039Z,4.80
2018-09-05T18:14:13.091Z,4.80
2018-09-05T18:16:42.463Z,4.70
2018-09-05T18:19:11.816Z,4.70
2018-09-05T18:21:41.093Z,4.43
2018-09-05T18:24:11.384Z,4.83
2018-09-05T18:26:41.644Z,4.43
2018-09-05T18:29:10.850Z,3.97
2018-09-05T18:31:41.455Z,4.00
2018-09-05T18:34:11.623Z,4.63
2018-09-05T18:36:41.004Z,4.47
2018-09-05T18:39:10.389Z,4.97
2018-09-05T18:41:39.850Z,4.80
2018-09-05T18:44:09.101Z,5.20
2018-09-05T18:46:38.354Z,6.63
2018-09-05T18:49:07.800Z,6.93
2018-09-05T18:51:37.074Z,7.00
2018-09-05T18:54:06.359Z,6.43
2018-09-05T18:56:35.384Z,6.40
2018-09-05T18:59:04.727Z,6.30
2018-09-05T19:01:33.979Z,6.20
2018-09-05T19:04:03.285Z,6.37
2018-09-05T19:06:32.513Z,6.23
2018-09-05T19:09:01.693Z,6.03
2018-09-05T19:11:31.086Z,5.83
2018-09-05T19:14:00.285Z,5.30
2018-09-05T19:16:29.471Z,5.93
2018-09-05T19:18:59.437Z,5.17
2018-09-05T19:21:28.711Z,5.70
2018-09-05T19:23:57.939Z,5.47
2018-09-05T19:26:27.138Z,5.37
2018-09-05T19:28:56.916Z,5.80
2018-09-05T19:31:26.768Z,5.53
2018-09-05T19:33:56.226Z,5.60
2018-09-05T19:36:25.764Z,6.23
2018-09-05T19:38:55.120Z,5.90
2018-09-05T19:41:24.526Z,6.37
2018-09-05T19:43:55.606Z,5.87
2018-09-05T19:46:25.044Z,5.57
2018-09-05T19:48:55.155Z,5.17
2018-09-05T19:51:25.645Z,5.27
2018-09-05T19:53:54.996Z,5.13
2018-09-05T19:56:24.304Z,5.10
2018-09-05T19:58:53.531Z,5.30
2018-09-05T20:01:22.840Z,5.00
2018-09-05T20:03:52.597Z,5.83
2018-09-05T20:06:22.194Z,5.53
2018-09-05T20:08:51.178Z,5.37
2018-09-05T20:11:20.689Z,5.50
2018-09-05T20:13:50.204Z,5.20
2018-09-05T20:16:19.736Z,5.37
2018-09-05T20:18:48.802Z,5.67
2018-09-05T20:21:19.181Z,5.37
2018-09-05T20:23:48.141Z,5.20
2018-09-05T20:26:17.066Z,5.60
2018-09-05T20:28:46.761Z,5.70
2018-09-05T20:31:17.308Z,5.70
2018-09-05T20:33:47.119Z,5.73
2018-09-05T20:36:15.977Z,5.63
2018-09-05T20:38:45.885Z,5.73
2018-09-05T20:41:14.786Z,5.67
2018-09-05T20:43:44.547Z,5.73
2018-09-05T20:46:14.673Z,5.80
2018-09-05T20:48:43.776Z,5.70
2018-09-05T20:51:12.793Z,5.53
2018-09-05T20:53:41.912Z,5.77
2018-09-05T20:56:10.660Z,5.20
2018-09-05T20:58:39.509Z,5.60
2018-09-05T21:01:09.040Z,5.60
2018-09-05T21:03:38.280Z,5.60
2018-09-05T21:06:07.624Z,5.93
2018-09-05T21:08:37.421Z,5.53
2018-09-05T21:11:06.348Z,5.53
2018-09-05T21:13:35.369Z,5.50
2018-09-05T21:16:04.251Z,5.67
2018-09-05T21:18:33.115Z,6.10
2018-09-05T21:21:02.408Z,5.60
2018-09-05T21:23:32.134Z,5.80
2018-09-05T21:26:01.522Z,5.90
2018-09-05T21:28:30.514Z,5.67
2018-09-05T21:30:59.539Z,6.03
2018-09-05T21:33:28.853Z,6.33
2018-09-05T21:35:58.861Z,6.17
2018-09-05T21:38:28.969Z,5.57
2018-09-05T21:40:57.795Z,5.63
2018-09-05T21:43:27.459Z,5.53
2018-09-05T21:45:56.493Z,5.50
2018-09-05T21:51:03.606Z,5.80
2018-09-05T21:53:32.472Z,5.53
2018-09-05T21:56:01.340Z,5.73
2018-09-05T21:58:30.802Z,5.23
2018-09-05T22:00:59.938Z,5.70
2018-09-05T22:03:28.684Z,5.53
2018-09-05T22:05:57.458Z,5.83
2018-09-05T22:08:26.159Z,5.50
2018-09-05T22:10:56.020Z,5.70
2018-09-05T22:13:25.372Z,6.37
2018-09-05T22:15:54.129Z,5.70
2018-09-05T22:18:23.004Z,5.70
2018-09-05T22:20:52.286Z,6.27
2018-09-05T22:23:21.621Z,5.93
2018-09-05T22:25:50.334Z,5.90
2018-09-05T22:28:19.018Z,6.03
2018-09-05T22:30:47.819Z,6.30
2018-09-05T22:33:16.546Z,6.07
2018-09-05T22:35:45.180Z,7.03
2018-09-05T22:38:13.846Z,6.70
2018-09-05T22:40:48.100Z,6.80
2018-09-05T22:43:35.124Z,7.33
2018-09-05T22:46:20.679Z,7.07
2018-09-05T22:49:16.264Z,7.50
2018-09-05T22:52:10.671Z,6.70
2018-09-05T22:56:51.017Z,6.40
2018-09-05T22:59:35.502Z,6.77
2018-09-05T23:03:24.136Z,7.13
2018-09-05T23:08:18.837Z,7.73
2018-09-05T23:11:04.346Z,7.03
2018-09-05T23:13:49.764Z,7.50
2018-09-05T23:16:35.359Z,7.53
2018-09-05T23:19:29.771Z,7.57
2018-09-05T23:21:58.536Z,7.40
2018-09-05T23:24:27.224Z,7.53
2018-09-05T23:26:55.865Z,7.57
2018-09-05T23:29:24.483Z,8.07
2018-09-05T23:31:53.076Z,7.77
2018-09-05T23:34:21.798Z,8.10
2018-09-05T23:36:50.575Z,7.63
2018-09-05T23:39:19.358Z,7.80
2018-09-05T23:41:48.103Z,7.40
2018-09-05T23:44:16.855Z,7.60
2018-09-05T23:46:45.621Z,7.37
2018-09-05T23:49:14.443Z,6.77
2018-09-05T23:51:43.273Z,7.00
2018-09-05T23:54:11.996Z,7.00
2018-09-05T23:56:40.861Z,6.50
2018-09-05T23:59:09.613Z,7.13
